createdAt,value
2018-01-12T00:00:48.411Z,959.41
2018-01-12T00:01:48.437Z,959.41
2018-01-12T00:02:48.440Z,959.44
2018-01-12T00:03:48.455Z,959.46
2018-01-12T00:04:48.469Z,959.47
2018-01-12T00:05:48.484Z,959.45
2018-01-12T00:06:48.498Z,959.45
2018-01-12T00:07:48.514Z,959.44
2018-01-12T00:08:48.528Z,959.42
2018-01-12T00:09:48.545Z,959.42
2018-01-12T00:10:48.559Z,959.45
2018-01-12T00:11:48.574Z,959.44
2018-01-12T00:12:48.589Z,959.44
2018-01-12T00:13:48.606Z,959.43
2018-01-12T00:14:48.619Z,959.45
2018-01-12T00:15:48.635Z,959.43
2018-01-12T00:16:48.648Z,959.45
2018-01-12T00:17:48.667Z,959.4
2018-01-12T00:18:48.677Z,959.47
2018-01-12T00:19:48.691Z,959.47
2018-01-12T00:20:48.706Z,959.48
2018-01-12T00:21:48.721Z,959.51
2018-01-12T00:22:48.737Z,959.49
2018-01-12T00:23:48.750Z,959.53
2018-01-12T00:24:48.766Z,959.53
2018-01-12T00:25:48.782Z,959.54
2018-01-12T00:26:48.797Z,959.57
2018-01-12T00:27:48.809Z,959.55
2018-01-12T00:28:48.826Z,959.56
2018-01-12T00:29:48.839Z,959.52
2018-01-12T00:30:48.883Z,959.53
2018-01-12T00:31:48.872Z,959.56
2018-01-12T00:32:48.885Z,959.55
2018-01-12T00:33:48.900Z,959.6
2018-01-12T00:34:48.914Z,959.64
2018-01-12T00:35:48.930Z,959.63
2018-01-12T00:36:48.945Z,959.64
2018-01-12T00:37:48.960Z,959.65
2018-01-12T00:38:48.976Z,959.69
2018-01-12T00:39:48.989Z,959.68
2018-01-12T00:40:49.004Z,959.65
2018-01-12T00:41:49.018Z,959.66
2018-01-12T00:42:49.033Z,959.69
2018-01-12T00:43:49.048Z,959.7
2018-01-12T00:44:49.063Z,959.63
2018-01-12T00:45:49.077Z,959.65
2018-01-12T00:46:49.091Z,959.69
2018-01-12T00:47:49.107Z,959.66
2018-01-12T00:48:49.122Z,959.67
2018-01-12T00:49:49.137Z,959.67
2018-01-12T00:50:49.150Z,959.71
2018-01-12T00:51:49.217Z,959.69
2018-01-12T00:52:49.181Z,959.7
2018-01-12T00:53:49.196Z,959.7
2018-01-12T00:54:49.210Z,959.71
2018-01-12T00:55:49.227Z,959.74
2018-01-12T00:56:49.240Z,959.71
2018-01-12T00:57:49.256Z,959.7
2018-01-12T00:58:49.270Z,959.71
2018-01-12T00:59:49.286Z,959.74
2018-01-12T01:00:49.299Z,959.71
2018-01-12T01:01:49.313Z,959.7
2018-01-12T01:02:49.330Z,959.73
2018-01-12T01:03:49.347Z,959.72
2018-01-12T01:04:49.358Z,959.72
2018-01-12T01:05:49.414Z,959.73
2018-01-12T01:06:49.440Z,959.72
2018-01-12T01:07:49.408Z,959.71
2018-01-12T01:08:49.419Z,959.72
2018-01-12T01:09:49.434Z,959.75
2018-01-12T01:10:49.449Z,959.72
2018-01-12T01:11:49.565Z,959.7
2018-01-12T01:12:49.477Z,959.68
2018-01-12T01:13:49.495Z,959.73
2018-01-12T01:14:49.507Z,959.73
2018-01-12T01:15:49.522Z,959.73
2018-01-12T01:16:49.538Z,959.75
2018-01-12T01:17:49.553Z,959.72
2018-01-12T01:18:49.566Z,959.74
2018-01-12T01:19:49.583Z,959.78
2018-01-12T01:20:49.598Z,959.73
2018-01-12T01:21:49.662Z,959.75
2018-01-12T01:22:49.627Z,959.77
2018-01-12T01:23:49.642Z,959.81
2018-01-12T01:24:49.657Z,959.83
2018-01-12T01:25:49.671Z,959.81
2018-01-12T01:26:49.686Z,959.83
2018-01-12T01:27:49.701Z,959.84
2018-01-12T01:28:49.716Z,959.88
2018-01-12T01:29:49.729Z,959.9
2018-01-12T01:30:49.744Z,959.92
2018-01-12T01:31:49.764Z,959.92
2018-01-12T01:32:49.776Z,959.95
2018-01-12T01:33:49.788Z,959.95
2018-01-12T01:34:49.804Z,960.01
2018-01-12T01:35:49.819Z,960
2018-01-12T01:36:49.982Z,960.01
2018-01-12T01:37:49.848Z,960.01
2018-01-12T01:38:49.864Z,960.04
2018-01-12T01:39:49.879Z,960.02
2018-01-12T01:40:49.897Z,960.03
2018-01-12T01:41:50.009Z,960.04
2018-01-12T01:42:49.924Z,960.06
2018-01-12T01:43:49.939Z,960.09
2018-01-12T01:44:49.954Z,960.12
2018-01-12T01:45:49.969Z,960.11
2018-01-12T01:46:49.982Z,960.09
2018-01-12T01:47:49.997Z,960.15
2018-01-12T01:48:50.014Z,960.15
2018-01-12T01:49:50.028Z,960.16
2018-01-12T01:50:50.044Z,960.17
2018-01-12T01:51:50.158Z,960.21
2018-01-12T01:52:50.072Z,960.31
2018-01-12T01:53:50.088Z,960.25
2018-01-12T01:54:50.102Z,960.26
2018-01-12T01:55:50.118Z,960.25
2018-01-12T01:56:50.137Z,960.29
2018-01-12T01:57:50.147Z,960.28
2018-01-12T01:58:50.162Z,960.29
2018-01-12T01:59:50.177Z,960.31
2018-01-12T02:00:50.192Z,960.3
2018-01-12T02:01:50.207Z,960.32
2018-01-12T02:02:50.225Z,960.27
2018-01-12T02:03:50.244Z,960.26
2018-01-12T02:04:50.253Z,960.26
2018-01-12T02:05:50.265Z,960.25
2018-01-12T02:06:50.330Z,960.28
2018-01-12T02:07:50.295Z,960.24
2018-01-12T02:08:50.310Z,960.24
2018-01-12T02:09:50.324Z,960.22
2018-01-12T02:10:50.340Z,960.26
2018-01-12T02:11:50.354Z,960.3
2018-01-12T02:12:50.392Z,960.3
2018-01-12T02:13:50.384Z,960.34
2018-01-12T02:14:50.399Z,960.34
2018-01-12T02:15:50.417Z,960.32
2018-01-12T02:16:50.428Z,960.34
2018-01-12T02:17:50.444Z,960.32
2018-01-12T02:18:50.458Z,960.38
2018-01-12T02:19:50.473Z,960.35
2018-01-12T02:20:50.488Z,960.38
2018-01-12T02:21:50.553Z,960.45
2018-01-12T02:22:50.517Z,960.42
2018-01-12T02:23:50.532Z,960.39
2018-01-12T02:24:50.548Z,960.45
2018-01-12T02:25:50.561Z,960.45
2018-01-12T02:26:50.576Z,960.46
2018-01-12T02:27:50.590Z,960.5
2018-01-12T02:28:50.604Z,960.49
2018-01-12T02:29:50.620Z,960.47
2018-01-12T02:30:50.635Z,960.5
2018-01-12T02:31:50.649Z,960.49
2018-01-12T02:32:50.664Z,960.55
2018-01-12T02:33:50.678Z,960.5
2018-01-12T02:34:50.699Z,960.5
2018-01-12T02:35:50.707Z,960.55
2018-01-12T02:36:50.722Z,960.58
2018-01-12T02:37:50.791Z,960.58
2018-01-12T02:38:50.751Z,960.63
2018-01-12T02:39:50.766Z,960.62
2018-01-12T02:40:50.781Z,960.6
2018-01-12T02:41:50.810Z,960.65
2018-01-12T02:42:50.911Z,960.63
2018-01-12T02:43:50.825Z,960.63
2018-01-12T02:44:50.840Z,960.64
2018-01-12T02:45:50.854Z,960.65
2018-01-12T02:46:50.868Z,960.64
2018-01-12T02:47:50.886Z,960.69
2018-01-12T02:48:50.901Z,960.66
2018-01-12T02:49:50.912Z,960.66
2018-01-12T02:50:50.928Z,960.67
2018-01-12T02:51:50.945Z,960.66
2018-01-12T02:52:51.008Z,960.72
2018-01-12T02:53:50.973Z,960.65
2018-01-12T02:54:50.986Z,960.68
2018-01-12T02:55:51.003Z,960.66
2018-01-12T02:56:51.018Z,960.64
2018-01-12T02:57:51.082Z,960.65
2018-01-12T02:58:51.050Z,960.66
2018-01-12T02:59:51.062Z,960.67
2018-01-12T03:00:51.076Z,960.65
2018-01-12T03:01:51.090Z,960.64
2018-01-12T03:02:51.106Z,960.67
2018-01-12T03:03:51.122Z,960.66
2018-01-12T03:04:51.139Z,960.63
2018-01-12T03:05:51.150Z,960.62
2018-01-12T03:06:51.166Z,960.67
2018-01-12T03:07:51.179Z,960.65
2018-01-12T03:08:51.194Z,960.64
2018-01-12T03:09:51.210Z,960.64
2018-01-12T03:10:51.228Z,960.65
2018-01-12T03:11:51.239Z,960.62
2018-01-12T03:12:51.254Z,960.67
2018-01-12T03:13:51.271Z,960.66
2018-01-12T03:14:51.285Z,960.71
2018-01-12T03:15:51.298Z,960.67
2018-01-12T03:16:51.316Z,960.65
2018-01-12T03:17:51.330Z,960.65
2018-01-12T03:18:51.345Z,960.64
2018-01-12T03:19:51.360Z,960.64
2018-01-12T03:20:51.376Z,960.62
2018-01-12T03:21:51.390Z,960.61
2018-01-12T03:22:51.405Z,960.65
2018-01-12T03:23:51.419Z,960.61
2018-01-12T03:24:51.435Z,960.6
2018-01-12T03:25:51.450Z,960.6
2018-01-12T03:26:51.465Z,960.63
2018-01-12T03:27:51.480Z,960.6
2018-01-12T03:28:51.495Z,960.59
2018-01-12T03:29:51.510Z,960.61
2018-01-12T03:30:51.526Z,960.55
2018-01-12T03:31:51.540Z,960.58
2018-01-12T03:32:51.554Z,960.59
2018-01-12T03:33:51.568Z,960.59
2018-01-12T03:34:51.585Z,960.61
2018-01-12T03:35:51.598Z,960.6
2018-01-12T03:36:51.614Z,960.62
2018-01-12T03:37:51.627Z,960.62
2018-01-12T03:38:51.678Z,960.59
2018-01-12T03:39:51.659Z,960.62
2018-01-12T03:40:51.672Z,960.6
2018-01-12T03:41:51.688Z,960.57
2018-01-12T03:42:51.701Z,960.58
2018-01-12T03:43:51.718Z,960.6
2018-01-12T03:44:51.731Z,960.6
2018-01-12T03:45:51.747Z,960.61
2018-01-12T03:46:51.762Z,960.63
2018-01-12T03:47:51.776Z,960.63
2018-01-12T03:48:51.791Z,960.61
2018-01-12T03:49:51.805Z,960.61
2018-01-12T03:50:51.821Z,960.55
2018-01-12T03:51:51.839Z,960.61
2018-01-12T03:52:51.850Z,960.57
2018-01-12T03:53:51.865Z,960.54
2018-01-12T03:54:51.880Z,960.59
2018-01-12T03:55:51.897Z,960.57
2018-01-12T03:56:51.909Z,960.54
2018-01-12T03:57:51.923Z,960.57
2018-01-12T03:58:51.938Z,960.56
2018-01-12T03:59:51.953Z,960.59
2018-01-12T04:00:51.968Z,960.58
2018-01-12T04:01:51.997Z,960.56
2018-01-12T04:02:51.996Z,960.55
2018-01-12T04:03:52.012Z,960.54
2018-01-12T04:04:52.028Z,960.53
2018-01-12T04:05:52.043Z,960.56
2018-01-12T04:06:52.059Z,960.56
2018-01-12T04:07:52.076Z,960.58
2018-01-12T04:08:52.136Z,960.61
2018-01-12T04:09:52.101Z,960.57
2018-01-12T04:10:52.114Z,960.55
2018-01-12T04:11:52.130Z,960.62
2018-01-12T04:12:52.144Z,960.62
2018-01-12T04:13:52.158Z,960.62
2018-01-12T04:14:52.174Z,960.61
2018-01-12T04:15:52.194Z,960.62
2018-01-12T04:16:52.204Z,960.64
2018-01-12T04:17:52.217Z,960.61
2018-01-12T04:18:52.231Z,960.6
2018-01-12T04:19:52.246Z,960.61
2018-01-12T04:20:52.260Z,960.6
2018-01-12T04:21:52.274Z,960.6
2018-01-12T04:22:52.290Z,960.6
2018-01-12T04:23:52.306Z,960.61
2018-01-12T04:24:52.368Z,960.64
2018-01-12T04:25:52.334Z,960.64
2018-01-12T04:26:52.352Z,960.66
2018-01-12T04:27:52.364Z,960.66
2018-01-12T04:28:52.378Z,960.67
2018-01-12T04:29:52.443Z,960.67
2018-01-12T04:30:52.414Z,960.73
2018-01-12T04:31:52.421Z,960.68
2018-01-12T04:32:52.436Z,960.71
2018-01-12T04:33:52.452Z,960.72
2018-01-12T04:34:52.466Z,960.73
2018-01-12T04:35:52.480Z,960.73
2018-01-12T04:36:52.495Z,960.73
2018-01-12T04:37:52.508Z,960.76
2018-01-12T04:38:52.524Z,960.72
2018-01-12T04:39:52.539Z,960.66
2018-01-12T04:40:52.553Z,960.69
2018-01-12T04:41:52.570Z,960.68
2018-01-12T04:42:52.583Z,960.68
2018-01-12T04:43:52.598Z,960.68
2018-01-12T04:44:52.661Z,960.67
2018-01-12T04:45:52.627Z,960.66
2018-01-12T04:46:52.640Z,960.7
2018-01-12T04:47:52.656Z,960.7
2018-01-12T04:48:52.671Z,960.72
2018-01-12T04:49:52.686Z,960.71
2018-01-12T04:50:52.700Z,960.66
2018-01-12T04:51:52.716Z,960.7
2018-01-12T04:52:52.731Z,960.7
2018-01-12T04:53:52.747Z,960.7
2018-01-12T04:54:52.764Z,960.7
2018-01-12T04:55:52.776Z,960.71
2018-01-12T04:56:52.794Z,960.71
2018-01-12T04:57:52.809Z,960.71
2018-01-12T04:58:52.821Z,960.74
2018-01-12T04:59:52.988Z,960.74
2018-01-12T05:00:52.853Z,960.77
2018-01-12T05:01:52.867Z,960.75
2018-01-12T05:02:52.882Z,960.75
2018-01-12T05:03:52.933Z,960.8
2018-01-12T05:04:52.912Z,960.8
2018-01-12T05:05:52.927Z,960.77
2018-01-12T05:06:52.941Z,960.79
2018-01-12T05:07:52.958Z,960.82
2018-01-12T05:08:52.971Z,960.8
2018-01-12T05:09:52.986Z,960.83
2018-01-12T05:10:53.002Z,960.86
2018-01-12T05:11:53.018Z,960.86
2018-01-12T05:12:53.030Z,960.86
2018-01-12T05:13:53.045Z,960.87
2018-01-12T05:14:53.119Z,960.86
2018-01-12T05:15:53.075Z,960.91
2018-01-12T05:16:53.090Z,960.89
2018-01-12T05:17:53.110Z,960.85
2018-01-12T05:18:53.121Z,960.9
2018-01-12T05:19:53.135Z,960.86
2018-01-12T05:20:53.151Z,960.85
2018-01-12T05:21:53.212Z,960.88
2018-01-12T05:22:53.183Z,960.88
2018-01-12T05:23:53.197Z,960.93
2018-01-12T05:24:53.212Z,960.94
2018-01-12T05:25:53.233Z,960.96
2018-01-12T05:26:53.242Z,960.94
2018-01-12T05:27:53.257Z,960.97
2018-01-12T05:28:53.273Z,961.02
2018-01-12T05:29:53.340Z,961.04
2018-01-12T05:30:53.301Z,961.06
2018-01-12T05:31:53.319Z,961.08
2018-01-12T05:32:53.334Z,961.04
2018-01-12T05:33:53.349Z,961.05
2018-01-12T05:34:53.364Z,961.09
2018-01-12T05:35:53.378Z,961.03
2018-01-12T05:36:53.394Z,961.1
2018-01-12T05:37:53.409Z,961.05
2018-01-12T05:38:53.424Z,961.08
2018-01-12T05:39:53.439Z,961.13
2018-01-12T05:40:53.456Z,961.06
2018-01-12T05:41:53.469Z,961.09
2018-01-12T05:42:53.484Z,961.05
2018-01-12T05:43:53.498Z,961.08
2018-01-12T05:44:53.565Z,961.11
2018-01-12T05:45:53.530Z,961.16
2018-01-12T05:46:53.545Z,961.15
2018-01-12T05:47:53.560Z,961.19
2018-01-12T05:48:53.575Z,961.2
2018-01-12T05:49:53.590Z,961.21
2018-01-12T05:50:53.606Z,961.23
2018-01-12T05:51:53.623Z,961.24
2018-01-12T05:52:53.637Z,961.24
2018-01-12T05:53:53.651Z,961.22
2018-01-12T05:54:53.766Z,961.24
2018-01-12T05:55:53.681Z,961.21
2018-01-12T05:56:53.695Z,961.24
2018-01-12T05:57:53.711Z,961.21
2018-01-12T05:58:53.727Z,961.23
2018-01-12T05:59:53.791Z,961.25
2018-01-12T06:00:53.755Z,961.28
2018-01-12T06:01:53.771Z,961.28
2018-01-12T06:02:53.786Z,961.25
2018-01-12T06:03:53.801Z,961.27
2018-01-12T06:04:53.916Z,961.26
2018-01-12T06:05:53.830Z,961.3
2018-01-12T06:06:53.845Z,961.23
2018-01-12T06:07:53.859Z,961.29
2018-01-12T06:08:53.876Z,961.32
2018-01-12T06:09:53.890Z,961.32
2018-01-12T06:10:53.905Z,961.35
2018-01-12T06:11:53.920Z,961.35
2018-01-12T06:12:53.954Z,961.38
2018-01-12T06:13:53.951Z,961.34
2018-01-12T06:14:54.116Z,961.33
2018-01-12T06:15:53.981Z,961.39
2018-01-12T06:16:53.996Z,961.38
2018-01-12T06:17:54.012Z,961.37
2018-01-12T06:18:54.027Z,961.39
2018-01-12T06:19:54.042Z,961.41
2018-01-12T06:20:54.060Z,961.41
2018-01-12T06:21:54.071Z,961.43
2018-01-12T06:22:54.087Z,961.44
2018-01-12T06:23:54.103Z,961.49
2018-01-12T06:24:54.116Z,961.51
2018-01-12T06:25:54.129Z,961.47
2018-01-12T06:26:54.145Z,961.47
2018-01-12T06:27:54.160Z,961.42
2018-01-12T06:28:54.185Z,961.49
2018-01-12T06:29:54.191Z,961.46
2018-01-12T06:30:54.209Z,961.41
2018-01-12T06:31:54.221Z,961.47
2018-01-12T06:32:54.234Z,961.5
2018-01-12T06:33:54.251Z,961.42
2018-01-12T06:34:54.269Z,961.48
2018-01-12T06:35:54.281Z,961.4
2018-01-12T06:36:54.294Z,961.43
2018-01-12T06:37:54.309Z,961.46
2018-01-12T06:38:54.324Z,961.51
2018-01-12T06:39:54.338Z,961.5
2018-01-12T06:40:54.357Z,961.49
2018-01-12T06:41:54.372Z,961.51
2018-01-12T06:42:54.384Z,961.57
2018-01-12T06:43:54.396Z,961.52
2018-01-12T06:44:54.411Z,961.51
2018-01-12T06:45:54.427Z,961.6
2018-01-12T06:46:54.443Z,961.53
2018-01-12T06:47:54.455Z,961.62
2018-01-12T06:48:54.470Z,961.59
2018-01-12T06:49:54.484Z,961.63
2018-01-12T06:50:54.497Z,961.67
2018-01-12T06:51:54.614Z,961.69
2018-01-12T06:52:54.530Z,961.68
2018-01-12T06:53:54.544Z,961.75
2018-01-12T06:54:54.601Z,961.75
2018-01-12T06:55:54.573Z,961.72
2018-01-12T06:56:54.589Z,961.79
2018-01-12T06:57:54.604Z,961.79
2018-01-12T06:58:54.618Z,961.73
2018-01-12T06:59:54.632Z,961.76
2018-01-12T07:00:54.650Z,961.75
2018-01-12T07:01:54.713Z,961.8
2018-01-12T07:02:54.677Z,961.76
2018-01-12T07:03:54.693Z,961.8
2018-01-12T07:04:54.706Z,961.87
2018-01-12T07:05:54.721Z,961.83
2018-01-12T07:06:54.835Z,961.92
2018-01-12T07:07:54.750Z,961.91
2018-01-12T07:08:54.768Z,961.92
2018-01-12T07:09:54.779Z,961.93
2018-01-12T07:10:54.795Z,961.96
2018-01-12T07:11:54.809Z,961.99
2018-01-12T07:12:54.823Z,962
2018-01-12T07:13:54.838Z,962.01
2018-01-12T07:14:54.854Z,962.01
2018-01-12T07:15:54.869Z,962.01
2018-01-12T07:16:54.937Z,962.03
2018-01-12T07:17:54.897Z,962.05
2018-01-12T07:18:54.912Z,962.03
2018-01-12T07:19:54.927Z,962.03
2018-01-12T07:20:54.941Z,962.04
2018-01-12T07:21:54.957Z,962.07
2018-01-12T07:22:54.972Z,962.06
2018-01-12T07:23:54.987Z,962.09
2018-01-12T07:24:55.003Z,962.1
2018-01-12T07:25:55.017Z,962.07
2018-01-12T07:26:55.032Z,962.08
2018-01-12T07:27:55.045Z,962.1
2018-01-12T07:28:55.060Z,962.12
2018-01-12T07:29:55.076Z,962.13
2018-01-12T07:30:55.089Z,962.07
2018-01-12T07:31:55.254Z,962.1
2018-01-12T07:32:55.197Z,962.1
2018-01-12T07:33:55.134Z,962.1
2018-01-12T07:34:55.147Z,962.13
2018-01-12T07:35:55.162Z,962.12
2018-01-12T07:36:55.177Z,962.12
2018-01-12T07:37:55.191Z,962.15
2018-01-12T07:38:55.207Z,962.07
2018-01-12T07:39:55.226Z,962.15
2018-01-12T07:40:55.238Z,962.12
2018-01-12T07:41:55.252Z,962.11
2018-01-12T07:42:55.266Z,962.16
2018-01-12T07:43:55.282Z,962.13
2018-01-12T07:44:55.297Z,962.18
2018-01-12T07:45:55.310Z,962.18
2018-01-12T07:46:55.477Z,962.21
2018-01-12T07:47:55.395Z,962.19
2018-01-12T07:48:55.358Z,962.2
2018-01-12T07:49:55.370Z,962.21
2018-01-12T07:50:55.386Z,962.23
2018-01-12T07:51:55.401Z,962.22
2018-01-12T07:52:55.416Z,962.26
2018-01-12T07:53:55.431Z,962.27
2018-01-12T07:54:55.446Z,962.31
2018-01-12T07:55:55.462Z,962.32
2018-01-12T07:56:55.476Z,962.28
2018-01-12T07:57:55.493Z,962.3
2018-01-12T07:58:55.508Z,962.34
2018-01-12T07:59:55.523Z,962.3
2018-01-12T08:00:55.539Z,962.36
2018-01-12T08:01:55.560Z,962.32
2018-01-12T08:02:55.567Z,962.34
2018-01-12T08:03:55.581Z,962.29
2018-01-12T08:04:55.598Z,962.37
2018-01-12T08:05:55.613Z,962.34
2018-01-12T08:06:55.628Z,962.39
2018-01-12T08:07:55.643Z,962.41
2018-01-12T08:08:55.660Z,962.41
2018-01-12T08:09:55.675Z,962.42
2018-01-12T08:10:55.689Z,962.43
2018-01-12T08:11:55.704Z,962.45
2018-01-12T08:12:55.720Z,962.45
2018-01-12T08:13:55.735Z,962.47
2018-01-12T08:14:55.749Z,962.46
2018-01-12T08:15:55.766Z,962.49
2018-01-12T08:16:55.786Z,962.54
2018-01-12T08:17:55.797Z,962.45
2018-01-12T08:18:55.811Z,962.47
2018-01-12T08:19:55.827Z,962.44
2018-01-12T08:20:55.842Z,962.45
2018-01-12T08:21:55.859Z,962.45
2018-01-12T08:22:55.873Z,962.49
2018-01-12T08:23:55.910Z,962.52
2018-01-12T08:24:55.906Z,962.49
2018-01-12T08:25:55.919Z,962.5
2018-01-12T08:26:55.937Z,962.47
2018-01-12T08:27:55.950Z,962.42
2018-01-12T08:28:55.966Z,962.43
2018-01-12T08:29:55.981Z,962.44
2018-01-12T08:30:56.015Z,962.44
2018-01-12T08:31:56.013Z,962.48
2018-01-12T08:32:56.029Z,962.5
2018-01-12T08:33:56.044Z,962.49
2018-01-12T08:34:56.058Z,962.49
2018-01-12T08:35:56.073Z,962.52
2018-01-12T08:36:56.088Z,962.49
2018-01-12T08:37:56.105Z,962.5
2018-01-12T08:38:56.121Z,962.47
2018-01-12T08:39:56.137Z,962.53
2018-01-12T08:40:56.151Z,962.52
2018-01-12T08:41:56.166Z,962.52
2018-01-12T08:42:56.182Z,962.52
2018-01-12T08:43:56.199Z,962.55
2018-01-12T08:44:56.214Z,962.5
2018-01-12T08:45:56.230Z,962.51
2018-01-12T08:46:56.246Z,962.52
2018-01-12T08:47:56.261Z,962.5
2018-01-12T08:48:56.278Z,962.5
2018-01-12T08:49:56.293Z,962.52
2018-01-12T08:50:56.308Z,962.53
2018-01-12T08:51:56.322Z,962.55
2018-01-12T08:52:56.340Z,962.54
2018-01-12T08:53:56.355Z,962.55
2018-01-12T08:54:56.371Z,962.53
2018-01-12T08:55:56.388Z,962.53
2018-01-12T08:56:56.402Z,962.59
2018-01-12T08:57:56.418Z,962.56
2018-01-12T08:58:56.433Z,962.59
2018-01-12T08:59:56.502Z,962.59
2018-01-12T09:00:56.465Z,962.6
2018-01-12T09:01:56.481Z,962.64
2018-01-12T09:02:56.496Z,962.6
2018-01-12T09:03:56.512Z,962.59
2018-01-12T09:04:56.528Z,962.6
2018-01-12T09:05:56.544Z,962.6
2018-01-12T09:06:56.559Z,962.61
2018-01-12T09:07:56.576Z,962.64
2018-01-12T09:08:56.593Z,962.6
2018-01-12T09:09:56.607Z,962.64
2018-01-12T09:10:56.623Z,962.63
2018-01-12T09:11:56.638Z,962.63
2018-01-12T09:12:56.655Z,962.67
2018-01-12T09:13:56.671Z,962.68
2018-01-12T09:14:56.696Z,962.69
2018-01-12T09:15:56.702Z,962.68
2018-01-12T09:16:56.718Z,962.72
2018-01-12T09:17:56.733Z,962.71
2018-01-12T09:18:56.750Z,962.67
2018-01-12T09:19:56.766Z,962.67
2018-01-12T09:20:56.782Z,962.69
2018-01-12T09:21:56.797Z,962.71
2018-01-12T09:22:56.814Z,962.74
2018-01-12T09:23:56.832Z,962.74
2018-01-12T09:24:56.846Z,962.76
2018-01-12T09:25:56.865Z,962.76
2018-01-12T09:26:56.878Z,962.74
2018-01-12T09:27:56.894Z,962.79
2018-01-12T09:28:56.910Z,962.82
2018-01-12T09:29:56.926Z,962.82
2018-01-12T09:30:56.946Z,962.79
2018-01-12T09:31:56.960Z,962.81
2018-01-12T09:32:56.974Z,962.84
2018-01-12T09:33:56.990Z,962.85
2018-01-12T09:34:57.007Z,962.83
2018-01-12T09:35:57.022Z,962.81
2018-01-12T09:36:57.039Z,962.83
2018-01-12T09:37:57.055Z,962.81
2018-01-12T09:38:57.072Z,962.77
2018-01-12T09:39:57.087Z,962.79
2018-01-12T09:40:57.105Z,962.79
2018-01-12T09:41:57.119Z,962.82
2018-01-12T09:42:57.136Z,962.83
2018-01-12T09:43:57.152Z,962.76
2018-01-12T09:44:57.168Z,962.79
2018-01-12T09:45:57.187Z,962.76
2018-01-12T09:46:57.200Z,962.82
2018-01-12T09:47:57.218Z,962.83
2018-01-12T09:48:57.233Z,962.84
2018-01-12T09:49:57.247Z,962.86
2018-01-12T09:50:57.266Z,962.83
2018-01-12T09:51:57.280Z,962.91
2018-01-12T09:52:57.297Z,962.85
2018-01-12T09:53:57.313Z,962.85
2018-01-12T09:54:57.333Z,962.86
2018-01-12T09:55:57.346Z,962.85
2018-01-12T09:56:57.362Z,962.88
2018-01-12T09:57:57.377Z,962.86
2018-01-12T09:58:57.399Z,962.87
2018-01-12T09:59:57.409Z,962.88
2018-01-12T10:00:57.425Z,962.85
2018-01-12T10:01:57.442Z,962.88
2018-01-12T10:02:57.459Z,962.87
2018-01-12T10:03:57.477Z,962.9
2018-01-12T10:04:57.489Z,962.91
2018-01-12T10:05:57.507Z,962.91
2018-01-12T10:06:57.523Z,962.94
2018-01-12T10:07:57.539Z,962.94
2018-01-12T10:08:57.556Z,962.9
2018-01-12T10:09:57.572Z,962.88
2018-01-12T10:10:57.589Z,962.93
2018-01-12T10:11:57.603Z,962.94
2018-01-12T10:12:57.623Z,962.96
2018-01-12T10:13:57.638Z,962.97
2018-01-12T10:14:57.654Z,963
2018-01-12T10:15:57.669Z,962.94
2018-01-12T10:16:57.687Z,962.9
2018-01-12T10:17:57.703Z,962.95
2018-01-12T10:18:57.720Z,962.91
2018-01-12T10:19:57.736Z,962.89
2018-01-12T10:20:57.753Z,962.91
2018-01-12T10:21:57.770Z,962.9
2018-01-12T10:22:57.786Z,962.89
2018-01-12T10:23:57.805Z,963.01
2018-01-12T10:24:57.820Z,963.05
2018-01-12T10:25:57.837Z,963.03
2018-01-12T10:26:57.852Z,963.07
2018-01-12T10:27:57.871Z,963.01
2018-01-12T10:28:57.892Z,962.99
2018-01-12T10:29:57.907Z,962.99
2018-01-12T10:30:57.926Z,962.98
2018-01-12T10:31:57.944Z,962.98
2018-01-12T10:32:57.962Z,963.1
2018-01-12T10:33:57.983Z,963.13
2018-01-12T10:34:57.999Z,963.09
2018-01-12T10:35:58.025Z,963.06
2018-01-12T10:36:58.037Z,963.09
2018-01-12T10:37:58.106Z,962.97
2018-01-12T10:38:58.075Z,962.98
2018-01-12T10:39:58.095Z,963
2018-01-12T10:40:58.114Z,963.03
2018-01-12T10:41:58.133Z,962.99
2018-01-12T10:42:58.153Z,962.98
2018-01-12T10:43:58.173Z,963
2018-01-12T10:44:58.193Z,963.03
2018-01-12T10:45:58.213Z,963
2018-01-12T10:46:58.234Z,963.01
2018-01-12T10:47:58.255Z,963.04
2018-01-12T10:48:58.271Z,963.11
2018-01-12T10:49:58.292Z,963.13
2018-01-12T10:50:58.316Z,963.05
2018-01-12T10:51:58.334Z,962.99
2018-01-12T10:52:58.405Z,962.98
2018-01-12T10:53:58.375Z,962.99
2018-01-12T10:54:58.395Z,963
2018-01-12T10:55:58.415Z,963.01
2018-01-12T10:56:58.435Z,963.01
2018-01-12T10:57:58.457Z,962.94
2018-01-12T10:58:58.478Z,962.91
2018-01-12T10:59:58.497Z,962.94
2018-01-12T11:00:58.517Z,963.03
2018-01-12T11:01:58.539Z,962.95
2018-01-12T11:02:58.562Z,962.95
2018-01-12T11:03:58.580Z,962.93
2018-01-12T11:04:58.603Z,962.9
2018-01-12T11:05:58.622Z,962.91
2018-01-12T11:06:58.642Z,962.88
2018-01-12T11:07:58.714Z,962.95
2018-01-12T11:08:58.684Z,962.94
2018-01-12T11:09:58.706Z,962.93
2018-01-12T11:10:58.724Z,962.88
2018-01-12T11:11:58.744Z,962.88
2018-01-12T11:12:58.827Z,962.89
2018-01-12T11:13:58.810Z,962.88
2018-01-12T11:14:58.806Z,962.84
2018-01-12T11:15:58.827Z,962.9
2018-01-12T11:16:58.847Z,962.89
2018-01-12T11:17:58.866Z,962.88
2018-01-12T11:18:58.886Z,962.89
2018-01-12T11:19:58.906Z,962.87
2018-01-12T11:20:58.926Z,962.84
2018-01-12T11:21:58.945Z,962.89
2018-01-12T11:22:59.015Z,962.92
2018-01-12T11:23:58.986Z,962.95
2018-01-12T11:24:59.004Z,962.91
2018-01-12T11:25:59.024Z,962.86
2018-01-12T11:26:59.043Z,962.87
2018-01-12T11:27:59.066Z,962.86
2018-01-12T11:28:59.097Z,962.85
2018-01-12T11:29:59.101Z,962.9
2018-01-12T11:30:59.122Z,962.83
2018-01-12T11:31:59.141Z,962.91
2018-01-12T11:32:59.209Z,963.03
2018-01-12T11:33:59.179Z,962.86
2018-01-12T11:34:59.201Z,962.89
2018-01-12T11:35:59.219Z,962.86
2018-01-12T11:36:59.237Z,962.86
2018-01-12T11:37:59.307Z,962.95
2018-01-12T11:38:59.281Z,962.85
2018-01-12T11:39:59.297Z,962.87
2018-01-12T11:40:59.317Z,962.8
2018-01-12T11:41:59.337Z,962.8
2018-01-12T11:42:59.359Z,962.78
2018-01-12T11:43:59.379Z,962.87
2018-01-12T11:44:59.399Z,962.84
2018-01-12T11:45:59.419Z,962.82
2018-01-12T11:46:59.438Z,962.83
2018-01-12T11:47:59.460Z,962.93
2018-01-12T11:48:59.480Z,962.91
2018-01-12T11:49:59.502Z,962.93
2018-01-12T11:50:59.522Z,962.88
2018-01-12T11:51:59.546Z,962.96
2018-01-12T11:52:59.615Z,962.8
2018-01-12T11:53:59.592Z,962.91
2018-01-12T11:54:59.610Z,962.98
2018-01-12T11:55:59.632Z,962.97
2018-01-12T11:56:59.654Z,962.99
2018-01-12T11:57:59.676Z,962.93
2018-01-12T11:58:59.699Z,962.85
2018-01-12T11:59:59.724Z,962.81
2018-01-12T12:00:59.748Z,962.81
2018-01-12T12:01:59.770Z,962.87
2018-01-12T12:02:59.792Z,962.85
2018-01-12T12:03:59.816Z,962.89
2018-01-12T12:04:59.840Z,963.05
2018-01-12T12:05:59.863Z,963.01
2018-01-12T12:06:59.888Z,963.06
2018-01-12T12:07:59.961Z,962.87
2018-01-12T12:08:59.934Z,963.04
2018-01-12T12:09:59.960Z,963.03
2018-01-12T12:10:59.985Z,962.99
2018-01-12T12:12:00.012Z,962.83
2018-01-12T12:13:00.048Z,962.81
2018-01-12T12:14:00.067Z,962.75
2018-01-12T12:15:00.108Z,962.87
2018-01-12T12:16:00.113Z,962.95
2018-01-12T12:17:00.137Z,962.72
2018-01-12T12:18:00.163Z,962.74
2018-01-12T12:19:00.189Z,962.74
2018-01-12T12:20:00.213Z,962.72
2018-01-12T12:21:00.237Z,962.73
2018-01-12T12:22:00.262Z,962.65
2018-01-12T12:23:00.390Z,962.63
2018-01-12T12:24:00.311Z,962.68
2018-01-12T12:25:00.335Z,962.66
2018-01-12T12:26:00.358Z,962.63
2018-01-12T12:27:00.382Z,962.6
2018-01-12T12:28:00.405Z,962.71
2018-01-12T12:29:00.427Z,962.78
2018-01-12T12:30:00.452Z,962.64
2018-01-12T12:31:00.474Z,962.62
2018-01-12T12:32:00.495Z,962.72